Time;durP1;ratioP1;P1;durP2;ratioP2;P2;SDS_P1;SDS_P2;PMS_P1;PMS_P2;Temp;Humidity;BMP_temperature;BMP_pressure;BME280_temperature;BME280_humidity;BME280_pressure;Samples;Min_cycle;Max_cycle;Signal;HPM_P1;HPM_P2
2022/08/06 00:02:27;;;;;;;8.15;2.70;;;;;;;19.45;43.45;102881.22;5075501;28;20133;-88
2022/08/06 00:04:53;;;;;;;6.68;3.13;;;;;;;19.31;43.83;102883.31;5074679;28;20029;-75
2022/08/06 00:07:19;;;;;;;6.10;2.80;;;;;;;19.15;44.10;102880.16;5057364;28;20025;-75
2022/08/06 00:09:45;;;;;;;3.75;2.60;;;;;;;19.19;44.24;102886.66;5075116;28;20031;-76
2022/08/06 00:12:11;;;;;;;8.82;3.38;;;;;;;18.95;44.82;102881.50;5075031;28;20029;-85
2022/08/06 00:14:37;;;;;;;6.32;2.95;;;;;;;18.87;45.21;102881.47;5074976;28;20111;-75
2022/08/06 00:17:03;;;;;;;6.72;3.25;;;;;;;18.79;45.43;102875.56;5075027;28;20104;-76
2022/08/06 00:19:28;;;;;;;7.30;2.17;;;;;;;18.81;45.61;102880.78;5074353;28;20039;-76
2022/08/06 00:21:54;;;;;;;10.35;3.05;;;;;;;18.77;45.78;102866.75;5075011;28;20028;-76
2022/08/06 00:24:20;;;;;;;4.57;2.60;;;;;;;18.67;45.92;102869.00;5075184;28;20024;-88
2022/08/06 00:26:47;;;;;;;4.75;2.90;;;;;;;18.71;45.77;102867.22;5074673;28;20036;-76
2022/08/06 00:29:13;;;;;;;8.52;2.50;;;;;;;18.94;45.06;102866.03;5074705;28;20099;-87
2022/08/06 00:31:39;;;;;;;7.03;3.08;;;;;;;19.17;44.43;102866.78;5074619;28;20056;-87
2022/08/06 00:34:05;;;;;;;4.40;2.67;;;;;;;19.22;44.25;102869.41;5073697;28;20113;-75
2022/08/06 00:36:32;;;;;;;5.00;2.70;;;;;;;19.27;44.09;102869.28;5074789;28;20111;-76
2022/08/06 00:38:59;;;;;;;8.38;3.25;;;;;;;19.14;44.53;102872.97;5074620;28;20471;-79
2022/08/06 00:41:26;;;;;;;6.82;2.83;;;;;;;19.03;44.87;102875.19;5074605;28;20036;-75
2022/08/06 00:43:52;;;;;;;12.02;3.28;;;;;;;19.05;44.97;102869.34;5074435;28;20463;-76
2022/08/06 00:46:18;;;;;;;8.75;3.60;;;;;;;19.04;45.14;102868.53;5056454;28;20054;-76
2022/08/06 00:48:44;;;;;;;5.50;2.80;;;;;;;19.18;44.72;102862.06;5073965;28;20149;-86
2022/08/06 00:51:09;;;;;;;9.07;3.13;;;;;;;19.18;44.71;102862.88;5074505;28;20029;-75
2022/08/06 00:53:36;;;;;;;12.25;3.40;;;;;;;18.84;45.49;102864.34;5074490;28;20035;-76
2022/08/06 00:56:03;;;;;;;5.05;2.75;;;;;;;18.80;45.63;102863.34;5074533;28;20036;-76
2022/08/06 00:58:29;;;;;;;6.43;2.95;;;;;;;18.85;45.24;102865.97;5074608;28;20040;-87
2022/08/06 01:00:55;;;;;;;5.70;3.03;;;;;;;18.90;45.23;102864.22;5056550;28;20356;-87
2022/08/06 01:03:21;;;;;;;6.40;2.92;;;;;;;18.91;45.08;102861.13;5073456;28;20037;-76
2022/08/06 01:05:46;;;;;;;7.03;2.50;;;;;;;18.90;44.81;102867.00;5073887;28;20025;-88
2022/08/06 01:08:12;;;;;;;5.45;2.55;;;;;;;18.97;44.64;102864.59;5073754;28;20498;-76
2022/08/06 01:10:38;;;;;;;7.82;3.45;;;;;;;18.70;45.32;102866.41;5073820;28;20063;-75
2022/08/06 01:13:04;;;;;;;10.18;2.92;;;;;;;18.74;45.30;102861.88;5073985;28;20031;-80
2022/08/06 01:15:31;;;;;;;7.07;3.13;;;;;;;18.68;45.53;102859.53;5073855;28;20509;-83
2022/08/06 01:18:06;;;;;;;11.90;3.60;;;;;;;18.84;45.29;102866.31;5073190;28;20035;-86
2022/08/06 01:21:10;;;;;;;6.18;2.95;;;;;;;18.82;45.17;102863.88;5073501;28;20394;-76
2022/08/06 01:23:53;;;;;;;7.78;3.55;;;;;;;19.03;44.74;102860.53;5073987;28;20063;-86
2022/08/06 01:26:36;;;;;;;11.20;3.03;;;;;;;18.78;45.10;102854.53;5055843;28;20449;-88
2022/08/06 01:29:08;;;;;;;7.95;3.10;;;;;;;18.62;45.65;102861.59;5073784;28;20443;-76
2022/08/06 01:31:53;;;;;;;5.70;3.22;;;;;;;18.57;45.67;102867.25;5073800;28;20078;-88
2022/08/06 01:34:27;;;;;;;7.30;3.38;;;;;;;18.49;46.11;102862.47;5072403;28;20050;-87
2022/08/06 01:37:05;;;;;;;5.53;3.25;;;;;;;18.60;45.66;102863.88;5053513;28;20029;-76
2022/08/06 01:39:33;;;;;;;9.63;3.30;;;;;;;18.75;45.37;102860.72;5053545;28;20043;-84
2022/08/06 01:42:02;;;;;;;9.75;3.60;;;;;;;18.79;45.05;102867.25;5053426;28;20032;-86
2022/08/06 01:44:40;;;;;;;7.15;3.25;;;;;;;18.55;45.85;102875.06;5035062;28;20478;-86
2022/08/06 01:47:10;;;;;;;7.50;3.38;;;;;;;18.52;45.99;102867.41;5052693;28;20388;-76
2022/08/06 01:49:37;;;;;;;7.82;3.97;;;;;;;18.53;45.89;102863.50;5053349;28;20021;-76
2022/08/06 01:52:05;;;;;;;10.25;3.05;;;;;;;18.51;46.05;102869.34;5035100;28;20372;-76
2022/08/06 01:54:37;;;;;;;6.82;3.15;;;;;;;18.50;46.22;102861.34;5053033;28;20068;-77
2022/08/06 01:57:04;;;;;;;6.05;3.13;;;;;;;18.44;46.38;102866.22;5053172;28;20066;-76
2022/08/06 01:59:37;;;;;;;6.80;2.92;;;;;;;18.38;46.77;102861.13;5053090;28;20033;-78
2022/08/06 02:02:07;;;;;;;5.97;2.80;;;;;;;18.31;46.65;102850.47;5052469;28;20475;-88
2022/08/06 02:04:39;;;;;;;7.30;3.50;;;;;;;18.14;47.16;102853.94;5059202;28;20040;-86
2022/08/06 02:07:08;;;;;;;10.18;3.60;;;;;;;18.11;47.31;102856.50;5073236;28;20032;-76
2022/08/06 02:09:35;;;;;;;5.35;3.45;;;;;;;18.12;47.34;102856.19;5072783;28;20060;-77
2022/08/06 02:12:06;;;;;;;7.57;4.55;;;;;;;18.22;46.86;102869.78;5072759;28;20033;-76
2022/08/06 02:14:36;;;;;;;9.43;4.45;;;;;;;18.29;46.72;102866.59;5072814;28;20158;-76
2022/08/06 02:17:04;;;;;;;11.10;4.35;;;;;;;18.18;47.21;102862.41;5072126;28;20103;-75
2022/08/06 02:19:32;;;;;;;7.00;3.85;;;;;;;18.27;46.87;102872.41;5072976;28;20095;-76
2022/08/06 02:22:02;;;;;;;12.52;5.25;;;;;;;18.28;47.06;102862.16;5054959;28;20059;-87
2022/08/06 02:24:30;;;;;;;6.97;3.90;;;;;;;18.20;47.15;102869.25;5072831;28;20028;-87
2022/08/06 02:27:00;;;;;;;8.80;4.18;;;;;;;18.19;47.21;102875.13;5072733;28;20024;-87
2022/08/06 02:29:27;;;;;;;8.18;4.95;;;;;;;18.18;47.25;102874.28;5072681;28;20039;-87
2022/08/06 02:31:54;;;;;;;6.50;3.70;;;;;;;18.15;47.44;102871.34;5072025;28;20491;-76
2022/08/06 02:34:21;;;;;;;9.55;4.07;;;;;;;18.30;47.21;102863.50;5072442;28;20426;-75
2022/08/06 02:37:02;;;;;;;7.30;4.57;;;;;;;18.40;47.16;102875.44;5072821;28;20047;-87
2022/08/06 02:39:36;;;;;;;17.05;5.20;;;;;;;18.43;47.29;102869.25;5072594;28;20039;-81
2022/08/06 02:42:06;;;;;;;10.27;5.22;;;;;;;18.44;47.07;102870.91;5072536;28;20033;-76
2022/08/06 02:44:42;;;;;;;10.10;4.20;;;;;;;18.37;47.71;102860.28;5072445;28;20025;-76
2022/08/06 02:47:12;;;;;;;6.55;4.20;;;;;;;18.38;47.24;102855.56;5071951;28;20505;-76
2022/08/06 02:49:43;;;;;;;7.85;4.57;;;;;;;18.55;46.66;102850.16;5072581;28;20103;-87
2022/08/06 02:52:18;;;;;;;8.50;4.30;;;;;;;18.19;47.43;102848.25;5072645;28;20035;-76
2022/08/06 02:54:58;;;;;;;9.85;5.40;;;;;;;18.07;47.96;102844.44;5072455;28;20029;-75
2022/08/06 02:57:31;;;;;;;11.25;7.50;;;;;;;18.15;47.70;102846.44;5076308;28;20056;-75
2022/08/06 03:00:03;;;;;;;7.88;6.53;;;;;;;18.08;47.66;102838.59;5076621;28;20020;-86
2022/08/06 03:02:31;;;;;;;14.52;11.90;;;;;;;18.09;47.60;102840.22;5076039;28;20031;-87
2022/08/06 03:04:59;;;;;;;13.18;12.05;;;;;;;18.10;47.72;102844.63;5076355;28;20040;-87
2022/08/06 03:07:28;;;;;;;15.05;13.65;;;;;;;18.09;47.83;102848.50;5076557;28;20056;-77
2022/08/06 03:09:56;;;;;;;14.67;9.00;;;;;;;18.01;48.13;102844.53;5076563;28;20025;-77
2022/08/06 03:12:22;;;;;;;12.18;11.10;;;;;;;18.06;48.00;102846.38;5076376;28;20385;-75
2022/08/06 03:14:50;;;;;;;11.15;9.00;;;;;;;18.10;47.74;102850.16;5075830;28;20031;-86
2022/08/06 03:17:17;;;;;;;13.00;11.70;;;;;;;18.05;48.10;102853.03;5075356;28;20028;-75
2022/08/06 03:19:44;;;;;;;14.00;12.57;;;;;;;17.92;48.40;102848.38;5075880;28;20035;-75
2022/08/06 03:22:11;;;;;;;14.10;13.10;;;;;;;17.81;48.92;102852.50;5076008;28;20020;-75
2022/08/06 03:24:39;;;;;;;12.25;11.25;;;;;;;17.98;48.52;102852.63;5076114;28;20493;-76
2022/08/06 03:27:06;;;;;;;11.52;10.43;;;;;;;18.02;48.40;102857.25;5076172;28;20509;-87
2022/08/06 03:29:35;;;;;;;7.63;6.47;;;;;;;18.16;47.90;102861.91;5076169;28;20032;-76
2022/08/06 03:32:01;;;;;;;7.78;6.38;;;;;;;18.00;48.35;102861.47;5075213;28;20028;-87
2022/08/06 03:34:29;;;;;;;10.18;7.38;;;;;;;18.00;48.37;102855.94;5075496;28;20045;-76
2022/08/06 03:36:57;;;;;;;8.82;7.15;;;;;;;17.96;48.15;102858.50;5075845;28;20025;-75
2022/08/06 03:39:25;;;;;;;10.07;7.93;;;;;;;17.76;49.09;102861.75;5075614;28;20047;-76
2022/08/06 03:41:53;;;;;;;7.75;6.95;;;;;;;17.83;48.76;102861.28;5075630;28;20077;-87
2022/08/06 03:44:19;;;;;;;11.07;9.98;;;;;;;17.91;48.41;102857.78;5075624;28;20052;-76
2022/08/06 03:47:10;;;;;;;11.45;9.18;;;;;;;17.93;48.56;102855.53;5075018;28;20347;-75
2022/08/06 03:49:41;;;;;;;11.13;10.13;;;;;;;17.94;48.34;102858.00;5075106;28;20124;-76
2022/08/06 03:52:09;;;;;;;10.60;9.77;;;;;;;17.89;48.65;102862.81;5075343;28;20099;-85
2022/08/06 03:54:38;;;;;;;7.07;5.53;;;;;;;17.89;48.72;102863.63;5075493;28;20028;-86
2022/08/06 03:57:12;;;;;;;12.15;11.00;;;;;;;17.97;48.61;102864.84;5075635;28;20071;-86
2022/08/06 03:59:43;;;;;;;12.15;11.32;;;;;;;18.09;48.17;102870.66;5037547;28;20032;-87
2022/08/06 04:02:10;;;;;;;10.57;9.52;;;;;;;18.13;47.81;102857.00;5054969;28;20076;-75
2022/08/06 04:04:37;;;;;;;18.17;14.93;;;;;;;17.95;48.69;102858.81;5055248;28;20026;-83
2022/08/06 04:07:03;;;;;;;10.32;9.30;;;;;;;17.82;49.01;102865.19;5054879;28;20028;-75
2022/08/06 04:09:31;;;;;;;12.88;11.60;;;;;;;17.84;49.15;102874.00;5055134;28;20096;-75
2022/08/06 04:11:57;;;;;;;12.68;11.82;;;;;;;17.75;49.55;102866.41;5055027;28;20032;-76
2022/08/06 04:14:24;;;;;;;9.85;8.73;;;;;;;18.12;48.42;102870.00;5054891;28;20037;-76
2022/08/06 04:16:51;;;;;;;10.68;9.77;;;;;;;18.08;48.53;102874.53;5036699;28;20052;-75
2022/08/06 04:19:19;;;;;;;10.82;9.82;;;;;;;18.10;48.64;102866.75;5037220;28;20032;-75
2022/08/06 04:21:46;;;;;;;10.35;9.45;;;;;;;18.11;48.50;102873.91;5055036;28;20054;-75
2022/08/06 04:24:12;;;;;;;10.18;9.18;;;;;;;18.05;48.79;102869.63;5055037;28;20083;-76
2022/08/06 04:26:39;;;;;;;16.98;15.35;;;;;;;18.01;48.96;102865.84;5054891;28;20020;-87
2022/08/06 04:29:08;;;;;;;12.55;11.48;;;;;;;18.00;48.98;102867.81;5054686;28;20017;-75
2022/08/06 04:31:36;;;;;;;11.93;8.15;;;;;;;18.16;48.66;102868.28;5054041;28;20029;-75
2022/08/06 04:34:03;;;;;;;6.00;5.50;;;;;;;18.19;48.79;102862.09;5059343;28;20486;-76
2022/08/06 04:36:29;;;;;;;13.30;8.75;;;;;;;18.18;48.77;102865.19;5056999;28;20078;-76
2022/08/06 04:38:55;;;;;;;9.05;8.20;;;;;;;18.18;48.70;102863.22;5074851;28;20016;-82
2022/08/06 04:41:21;;;;;;;7.72;6.82;;;;;;;17.96;49.49;102860.44;5074745;28;20552;-76
2022/08/06 04:43:49;;;;;;;6.82;6.07;;;;;;;18.09;49.40;102865.13;5074881;28;20047;-88
2022/08/06 04:46:15;;;;;;;11.50;6.18;;;;;;;18.16;49.09;102864.69;5074012;28;20025;-76
2022/08/06 04:48:40;;;;;;;9.18;6.38;;;;;;;18.23;48.83;102865.88;5074366;28;20035;-80
2022/08/06 04:51:06;;;;;;;12.75;5.60;;;;;;;18.32;48.66;102865.13;5074568;28;20023;-75
2022/08/06 04:53:40;;;;;;;10.13;6.03;;;;;;;18.31;48.59;102864.31;5074453;28;20029;-75
2022/08/06 04:56:07;;;;;;;9.95;5.38;;;;;;;18.25;48.67;102866.38;5074418;28;20029;-88
2022/08/06 04:58:33;;;;;;;9.77;4.40;;;;;;;18.31;48.96;102872.63;5074116;28;20117;-75
2022/08/06 05:01:00;;;;;;;9.60;5.45;;;;;;;18.16;49.56;102865.50;5073374;28;20063;-75
2022/08/06 05:03:26;;;;;;;6.90;3.80;;;;;;;18.06;50.00;102870.44;5074750;28;20382;-88
2022/08/06 05:06:22;;;;;;;10.75;4.05;;;;;;;17.96;50.66;102883.38;5074104;28;20029;-86
2022/08/06 05:08:54;;;;;;;18.63;4.90;;;;;;;17.99;50.77;102879.19;5074379;28;20046;-86
2022/08/06 05:11:33;;;;;;;8.85;3.22;;;;;;;18.11;50.35;102871.16;5073892;28;20498;-76
2022/08/06 05:14:09;;;;;;;7.57;3.13;;;;;;;18.23;50.62;102874.19;5073999;28;20107;-75
2022/08/06 05:16:41;;;;;;;16.15;5.40;;;;;;;18.49;49.54;102874.38;5073424;28;20020;-75
2022/08/06 05:19:13;;;;;;;7.32;3.65;;;;;;;18.75;48.88;102860.72;5081355;28;20470;-76
2022/08/06 05:21:41;;;;;;;7.20;4.03;;;;;;;18.91;48.28;102863.09;5065135;28;20078;-75
2022/08/06 05:24:07;;;;;;;4.78;3.50;;;;;;;19.05;48.22;102863.81;5077790;28;20032;-87
2022/08/06 05:26:34;;;;;;;5.10;3.15;;;;;;;19.22;47.78;102868.59;5088671;28;20021;-87
2022/08/06 05:28:59;;;;;;;7.70;4.78;;;;;;;18.97;48.70;102872.91;5085894;28;20031;-80
2022/08/06 05:31:30;;;;;;;6.90;3.33;;;;;;;18.97;49.10;102864.59;5092362;28;20016;-76
2022/08/06 05:33:56;;;;;;;6.63;2.97;;;;;;;19.09;48.79;102859.25;5073254;28;20073;-88
2022/08/06 05:36:21;;;;;;;7.25;3.10;;;;;;;19.13;48.47;102861.06;5073565;28;20033;-89
2022/08/06 05:38:47;;;;;;;8.25;3.08;;;;;;;19.28;48.27;102862.59;5081991;28;20063;-87
2022/08/06 05:41:12;;;;;;;10.70;4.20;;;;;;;19.31;48.25;102853.63;5076001;28;20382;-77
2022/08/06 05:43:39;;;;;;;5.43;2.55;;;;;;;19.29;48.17;102858.69;5093853;28;20107;-88
2022/08/06 05:46:09;;;;;;;8.73;3.63;;;;;;;19.45;47.90;102858.25;5093566;28;20032;-88
2022/08/06 05:48:41;;;;;;;12.65;4.07;;;;;;;19.59;47.43;102862.53;5093245;28;20028;-87
2022/08/06 05:51:28;;;;;;;8.10;3.15;;;;;;;19.40;48.09;102860.00;5093541;28;20067;-78
2022/08/06 05:54:03;;;;;;;4.05;2.20;;;;;;;19.38;48.04;102862.28;5093681;28;20035;-87
2022/08/06 05:56:34;;;;;;;5.53;2.30;;;;;;;19.54;47.73;102864.59;5083212;28;20119;-88
2022/08/06 05:59:04;;;;;;;4.22;2.50;;;;;;;19.48;48.16;102866.72;5069274;28;20031;-87
2022/08/06 06:01:32;;;;;;;5.50;2.28;;;;;;;19.55;47.98;102869.00;5067238;28;20088;-79
2022/08/06 06:03:59;;;;;;;8.32;3.33;;;;;;;19.74;47.56;102860.44;5080684;28;20048;-85
2022/08/06 06:06:26;;;;;;;6.93;2.70;;;;;;;19.93;47.02;102860.94;5085081;28;20016;-75
2022/08/06 06:08:52;;;;;;;8.32;4.68;;;;;;;19.93;47.10;102861.75;5081345;28;20020;-83
2022/08/06 06:11:19;;;;;;;5.25;3.72;;;;;;;20.10;46.65;102868.44;5084106;28;20031;-74
2022/08/06 06:13:46;;;;;;;4.95;2.58;;;;;;;19.69;47.57;102866.97;5083259;28;20025;-86
2022/08/06 06:16:32;;;;;;;10.20;3.92;;;;;;;19.91;47.06;102868.78;5087252;28;20070;-75
2022/08/06 06:19:22;;;;;;;12.98;5.45;;;;;;;20.06;46.70;102871.06;5093148;28;20023;-75
2022/08/06 06:21:56;;;;;;;;;;;;;;;20.14;46.52;102866.66;5093357;28;20024;-75
2022/08/06 06:24:32;;;;;;;7.18;3.15;;;;;;;19.97;46.92;102877.78;5092905;28;19912;-74
2022/08/06 06:27:22;;;;;;;7.55;5.20;;;;;;;20.23;46.24;102867.47;5088580;28;20104;-74
2022/08/06 06:30:10;;;;;;;5.97;4.53;;;;;;;20.38;46.07;102866.16;5072445;28;20568;-75
2022/08/06 06:32:58;;;;;;;6.70;3.67;;;;;;;20.38;46.09;102872.53;5072557;28;20123;-75
2022/08/06 06:35:53;;;;;;;7.18;2.50;;;;;;;20.36;46.32;102866.50;5072114;28;20475;-75
2022/08/06 06:38:22;;;;;;;7.65;2.90;;;;;;;20.48;46.21;102874.19;5080048;28;20089;-84
2022/08/06 06:41:13;;;;;;;8.43;3.95;;;;;;;20.70;45.97;102884.25;5081807;28;20034;-76
2022/08/06 06:44:09;;;;;;;9.82;4.38;;;;;;;20.69;45.91;102883.44;5082453;28;20025;-85
2022/08/06 06:46:46;;;;;;;7.43;2.83;;;;;;;20.93;45.71;102884.84;5062581;28;20102;-77
2022/08/06 06:49:22;;;;;;;8.13;2.83;;;;;;;21.29;44.88;102887.19;5078563;28;20016;-78
2022/08/06 06:51:56;;;;;;;10.00;2.75;;;;;;;21.22;45.33;102887.69;5081046;28;20035;-78
2022/08/06 06:54:50;;;;;;;10.68;2.92;;;;;;;21.42;45.07;102891.72;5081064;28;20028;-87
2022/08/06 06:57:21;;;;;;;7.15;2.05;;;;;;;21.60;44.61;102879.31;5076231;28;20047;-81
2022/08/06 06:59:51;;;;;;;4.93;1.60;;;;;;;21.71;44.26;102884.50;5076976;28;20469;-81
2022/08/06 07:02:28;;;;;;;6.13;2.80;;;;;;;21.65;44.51;102883.88;5079865;28;20064;-79
2022/08/06 07:04:55;;;;;;;7.63;2.38;;;;;;;21.83;44.20;102877.03;5065079;28;20557;-81
2022/08/06 07:07:22;;;;;;;4.00;2.45;;;;;;;21.86;44.21;102890.28;5082789;28;20474;-78
2022/08/06 07:09:50;;;;;;;4.88;3.17;;;;;;;21.99;43.81;102895.91;5077237;28;20027;-78
2022/08/06 07:12:19;;;;;;;3.70;1.48;;;;;;;21.77;44.33;102883.16;5082915;28;20547;-75
2022/08/06 07:14:47;;;;;;;6.53;2.37;;;;;;;22.02;43.57;102896.06;5087045;28;20135;-75
2022/08/06 07:17:18;;;;;;;12.60;3.50;;;;;;;21.95;43.74;102901.38;5080603;28;20698;-75
2022/08/06 07:19:50;;;;;;;7.50;2.13;;;;;;;21.83;44.22;102901.28;5078193;28;20086;-90
2022/08/06 07:22:16;;;;;;;7.35;1.90;;;;;;;21.98;43.83;102903.44;5078896;28;20024;-92
2022/08/06 07:24:43;;;;;;;4.15;1.70;;;;;;;22.10;43.98;102900.78;5093326;28;20028;-85
2022/08/06 07:27:12;;;;;;;10.60;2.35;;;;;;;21.92;44.28;102902.06;5086533;28;20084;-80
2022/08/06 07:29:40;;;;;;;5.38;1.77;;;;;;;21.89;44.54;102899.94;5078092;28;20068;-91
2022/08/06 07:32:09;;;;;;;4.80;1.73;;;;;;;21.96;44.12;102894.63;5073930;28;20116;-91
2022/08/06 07:34:35;;;;;;;8.57;2.00;;;;;;;21.98;43.89;102895.09;5089863;28;20036;-77
2022/08/06 07:37:02;;;;;;;6.22;2.15;;;;;;;22.05;43.84;102902.91;5083225;28;20589;-79
2022/08/06 07:39:32;;;;;;;7.22;1.63;;;;;;;22.26;43.28;102900.16;5064116;28;20089;-80
2022/08/06 07:42:10;;;;;;;5.97;1.83;;;;;;;22.57;42.66;102906.09;5089645;28;20020;-85
2022/08/06 07:44:41;;;;;;;9.65;2.50;;;;;;;22.84;42.24;102901.06;5080075;28;20020;-87
2022/08/06 07:47:08;;;;;;;4.15;1.73;;;;;;;22.51;42.80;102907.44;5080570;28;20126;-78
2022/08/06 07:49:41;;;;;;;37.47;5.32;;;;;;;22.77;42.83;102900.81;5076228;28;20025;-89
2022/08/06 07:52:12;;;;;;;4.22;1.90;;;;;;;22.92;42.48;102909.38;5076023;28;20480;-87
2022/08/06 07:54:40;;;;;;;8.38;2.13;;;;;;;23.22;41.93;102910.00;5075552;28;20379;-88
2022/08/06 07:57:06;;;;;;;5.47;2.13;;;;;;;23.30;41.66;102901.88;5075694;28;20143;-84
2022/08/06 07:59:32;;;;;;;14.18;2.03;;;;;;;23.20;41.54;102911.47;5074486;28;20028;-83
2022/08/06 08:02:04;;;;;;;4.28;1.75;;;;;;;23.41;41.31;102901.03;5093078;28;20032;-81
2022/08/06 08:07:15;;;;;;;5.70;1.92;;;;;;;23.20;41.73;102908.69;5095439;28;20045;-78
2022/08/06 08:09:45;;;;;;;6.53;1.63;;;;;;;23.55;40.81;102903.47;5077287;28;20028;-86
2022/08/06 08:12:13;;;;;;;10.82;1.63;;;;;;;23.76;40.41;102911.75;5040704;28;20036;-85
2022/08/06 08:14:42;;;;;;;6.05;1.42;;;;;;;24.06;40.21;102909.47;5062454;28;20028;-87
2022/08/06 08:17:08;;;;;;;6.28;1.33;;;;;;;23.93;40.42;102913.44;5078971;28;20081;-79
2022/08/06 08:19:34;;;;;;;15.32;2.47;;;;;;;24.01;40.39;102912.50;5088530;28;20062;-91
2022/08/06 08:22:09;;;;;;;6.38;1.60;;;;;;;24.08;39.67;102907.13;5090982;28;20050;-93
2022/08/06 08:24:36;;;;;;;4.55;1.70;;;;;;;24.22;39.79;102907.56;5078887;28;20032;-77
2022/08/06 08:27:03;;;;;;;6.45;1.42;;;;;;;24.58;39.32;102903.81;5083121;28;20516;-77
2022/08/06 08:29:29;;;;;;;7.05;1.98;;;;;;;24.69;38.71;102904.09;5082719;28;20367;-80
2022/08/06 08:31:56;;;;;;;3.47;1.23;;;;;;;24.66;38.83;102898.44;5082080;28;20102;-82
2022/08/06 08:34:22;;;;;;;4.65;1.58;;;;;;;25.06;38.03;102903.91;5060412;28;20716;-78
2022/08/06 08:36:47;;;;;;;1.98;0.90;;;;;;;24.92;37.90;102907.13;5058318;28;20035;-77
2022/08/06 08:39:14;;;;;;;7.53;1.75;;;;;;;25.02;37.64;102895.41;5058535;28;20683;-79
2022/08/06 08:41:44;;;;;;;6.25;1.83;;;;;;;25.01;37.92;102892.94;5059157;28;20024;-83
2022/08/06 08:44:11;;;;;;;6.32;1.67;;;;;;;25.03;38.03;102890.63;5059359;28;20498;-77
2022/08/06 08:46:44;;;;;;;7.22;2.05;;;;;;;25.19;37.41;102894.25;5072103;28;20032;-85
2022/08/06 08:49:40;;;;;;;3.40;1.23;;;;;;;25.33;37.07;102886.22;5085279;28;20032;-78
2022/08/06 08:52:09;;;;;;;8.13;2.08;;;;;;;25.68;36.61;102889.03;5080913;28;20051;-87
2022/08/06 08:54:37;;;;;;;3.80;1.02;;;;;;;25.42;36.70;102892.44;5082952;28;20425;-84
2022/08/06 08:57:03;;;;;;;8.82;1.75;;;;;;;25.45;36.89;102874.09;5076970;28;20419;-88
2022/08/06 08:59:30;;;;;;;5.00;1.40;;;;;;;25.41;36.79;102874.03;5082902;28;20027;-77
2022/08/06 09:01:57;;;;;;;6.32;1.63;;;;;;;25.59;36.95;102879.22;5078129;28;20416;-82
2022/08/06 09:04:24;;;;;;;3.35;1.83;;;;;;;25.67;36.89;102876.22;5080341;28;20021;-78
2022/08/06 09:06:49;;;;;;;4.25;1.45;;;;;;;25.72;36.65;102877.97;5056930;28;20779;-77
2022/08/06 09:09:15;;;;;;;2.78;1.08;;;;;;;25.77;36.76;102882.44;5056140;28;20032;-82
2022/08/06 09:11:41;;;;;;;1.83;0.88;;;;;;;25.82;36.42;102885.78;5056536;28;20039;-80
2022/08/06 09:14:08;;;;;;;3.90;1.20;;;;;;;25.93;35.71;102886.84;5056667;28;20074;-80
2022/08/06 09:16:36;;;;;;;7.10;1.58;;;;;;;26.14;35.51;102894.03;5058209;28;20474;-78
2022/08/06 09:19:04;;;;;;;5.47;1.40;;;;;;;26.17;35.73;102894.13;5059295;28;20040;-78
2022/08/06 09:21:30;;;;;;;7.65;1.23;;;;;;;26.29;35.71;102893.97;5058585;28;20040;-78
2022/08/06 09:23:57;;;;;;;4.43;1.00;;;;;;;26.40;35.31;102894.22;5039434;28;20402;-79
2022/08/06 09:26:22;;;;;;;6.22;1.30;;;;;;;26.28;36.09;102894.34;5057318;28;20029;-77
2022/08/06 09:28:49;;;;;;;6.65;1.17;;;;;;;26.49;36.26;102888.38;5066520;28;20032;-74
2022/08/06 09:31:17;;;;;;;4.35;1.10;;;;;;;26.54;36.14;102896.50;5073049;28;20482;-74
2022/08/06 09:33:53;;;;;;;4.70;1.70;;;;;;;26.68;35.88;102887.56;5072955;28;20617;-77
2022/08/06 09:36:19;;;;;;;4.07;1.40;;;;;;;26.85;35.88;102898.28;5063126;28;20021;-83
2022/08/06 09:38:51;;;;;;;3.15;1.40;;;;;;;26.70;35.70;102899.19;5075642;28;20099;-83
2022/08/06 09:41:18;;;;;;;7.80;1.90;;;;;;;26.95;35.24;102894.84;5076952;28;20077;-85
2022/08/06 09:43:46;;;;;;;7.22;1.48;;;;;;;26.95;35.45;102897.66;5089535;28;20374;-84
2022/08/06 09:46:12;;;;;;;6.28;1.30;;;;;;;27.22;34.92;102898.53;5084275;28;20024;-82
2022/08/06 09:48:59;;;;;;;10.45;2.22;;;;;;;27.01;35.28;102903.75;5073438;28;20074;-82
2022/08/06 09:51:25;;;;;;;3.40;1.20;;;;;;;26.40;35.81;102907.44;5078874;28;20016;-79
2022/08/06 09:53:59;;;;;;;4.68;1.30;;;;;;;26.61;35.58;102913.47;5078699;28;20024;-83
2022/08/06 09:56:26;;;;;;;6.90;1.08;;;;;;;27.13;35.15;102905.59;5072599;28;20025;-84
2022/08/06 09:59:01;;;;;;;7.38;1.38;;;;;;;26.70;35.94;102896.41;5065456;28;20024;-75
2022/08/06 10:01:27;;;;;;;5.72;1.90;;;;;;;27.11;35.31;102903.16;5066127;28;20331;-74
2022/08/06 10:03:55;;;;;;;5.75;2.40;;;;;;;27.05;35.47;102904.66;5067028;28;20033;-83
2022/08/06 10:06:21;;;;;;;9.88;1.63;;;;;;;26.85;35.77;102909.50;5071937;28;20070;-83
2022/08/06 10:08:49;;;;;;;11.73;1.52;;;;;;;27.06;35.26;102909.09;5070528;28;20020;-78
2022/08/06 10:11:32;;;;;;;2.55;1.40;;;;;;;27.02;35.28;102911.00;5064573;28;20029;-80
2022/08/06 10:13:57;;;;;;;6.43;1.30;;;;;;;27.44;34.73;102916.53;5074343;28;20024;-75
2022/08/06 10:16:30;;;;;;;3.53;1.27;;;;;;;26.98;35.65;102904.50;5063326;28;20016;-75
2022/08/06 10:18:57;;;;;;;2.13;1.20;;;;;;;27.18;35.51;102908.09;5076797;28;20414;-75
2022/08/06 10:21:28;;;;;;;9.98;1.80;;;;;;;27.38;35.19;102895.59;5075096;28;20016;-81
2022/08/06 10:24:00;;;;;;;17.02;3.50;;;;;;;27.78;34.95;102888.56;5074485;28;20028;-83
2022/08/06 10:26:30;;;;;;;5.75;1.48;;;;;;;27.99;34.65;102888.06;5052199;28;20478;-75
2022/08/06 10:29:04;;;;;;;4.80;1.40;;;;;;;28.25;34.12;102889.97;5069122;28;20502;-79
2022/08/06 10:31:32;;;;;;;8.93;2.30;;;;;;;28.54;34.04;102891.13;5070931;28;20533;-83
2022/08/06 10:34:06;;;;;;;8.27;1.35;;;;;;;28.74;33.22;102881.31;5070798;28;20127;-83
2022/08/06 10:36:57;;;;;;;4.05;1.20;;;;;;;28.70;33.54;102877.63;5071386;28;20103;-76
2022/08/06 10:39:28;;;;;;;1.60;0.98;;;;;;;28.36;33.07;102876.91;5071869;28;20489;-84
2022/08/06 10:41:56;;;;;;;10.05;2.00;;;;;;;28.64;33.05;102871.59;5071970;28;20033;-87
2022/08/06 10:44:23;;;;;;;3.90;1.60;;;;;;;28.75;32.95;102880.91;5061998;28;20031;-75
2022/08/06 10:46:52;;;;;;;4.55;1.30;;;;;;;28.91;33.02;102875.06;5055008;28;20077;-74
2022/08/06 10:49:22;;;;;;;4.25;0.93;;;;;;;28.87;32.94;102873.38;5055411;28;20382;-74
2022/08/06 10:51:49;;;;;;;3.03;1.20;;;;;;;28.89;32.53;102876.63;5055596;28;20157;-74
2022/08/06 10:54:16;;;;;;;5.53;1.40;;;;;;;29.06;32.72;102875.19;5055440;28;20056;-75
2022/08/06 10:56:42;;;;;;;3.90;1.02;;;;;;;28.90;33.16;102872.59;5055171;28;20025;-82
2022/08/06 10:59:12;;;;;;;9.80;2.08;;;;;;;29.25;32.47;102877.75;5055784;28;20111;-79
2022/08/06 11:01:53;;;;;;;7.07;1.75;;;;;;;29.73;32.05;102866.41;5055910;28;20701;-75
2022/08/06 11:04:18;;;;;;;4.55;1.30;;;;;;;29.92;32.23;102865.28;5055571;28;20504;-74
2022/08/06 11:07:11;;;;;;;7.00;1.42;;;;;;;30.03;31.40;102868.97;5055832;28;20115;-74
2022/08/06 11:09:53;;;;;;;2.97;1.10;;;;;;;30.08;31.78;102863.78;5055994;28;20028;-75
2022/08/06 11:12:43;;;;;;;3.60;1.20;;;;;;;29.61;32.15;102867.53;5055242;28;20036;-75
2022/08/06 11:15:09;;;;;;;15.85;2.20;;;;;;;30.25;30.91;102867.06;5054962;28;20037;-74
2022/08/06 11:17:46;;;;;;;9.65;2.00;;;;;;;30.08;31.47;102868.59;5059539;28;20938;-85
2022/08/06 11:20:36;;;;;;;6.63;1.55;;;;;;;30.07;31.38;102867.75;5060381;28;20032;-86
2022/08/06 11:23:22;;;;;;;4.47;1.30;;;;;;;29.54;31.74;102868.31;5060634;28;20024;-79
2022/08/06 11:25:55;;;;;;;4.05;1.27;;;;;;;29.33;31.62;102865.34;5060123;28;21441;-74
2022/08/06 11:28:27;;;;;;;15.13;2.95;;;;;;;29.54;31.23;102867.50;5057761;28;20602;-74
2022/08/06 11:30:55;;;;;;;6.22;1.85;;;;;;;29.46;31.28;102865.81;5057992;28;20036;-74
2022/08/06 11:33:42;;;;;;;2.50;1.30;;;;;;;29.14;31.57;102871.22;5060953;28;20036;-78
2022/08/06 11:36:12;;;;;;;6.90;1.50;;;;;;;29.39;30.88;102858.13;5058682;28;20036;-73
2022/08/06 11:38:46;;;;;;;3.88;1.77;;;;;;;29.48;31.13;102860.63;5064722;28;20119;-73
2022/08/06 11:41:22;;;;;;;5.40;1.40;;;;;;;29.28;31.33;102858.06;5072740;28;20104;-75